Time;durP1;ratioP1;P1;durP2;ratioP2;P2;SDS_P1;SDS_P2;PMS_P1;PMS_P2;Temp;Humidity;BMP_temperature;BMP_pressure;BME280_temperature;BME280_humidity;BME280_pressure;Samples;Min_cycle;Max_cycle;Signal;HPM_P1;HPM_P2
2022/07/20 00:00:32;;;;;;;7.45;4.07;;;;;;;27.03;35.31;101043.66;5102242;28;20043;-59
2022/07/20 00:03:09;;;;;;;10.82;3.75;;;;;;;26.98;34.14;101048.56;5110932;28;20350;-58
2022/07/20 00:05:35;;;;;;;10.77;3.95;;;;;;;26.89;33.84;101051.91;5111228;28;20202;-59
2022/07/20 00:08:00;;;;;;;6.88;3.80;;;;;;;26.85;34.17;101043.22;5110489;28;20028;-58
2022/07/20 00:13:10;;;;;;;6.85;3.72;;;;;;;26.70;36.34;101041.75;5111247;28;20108;-58
2022/07/20 00:15:37;;;;;;;8.70;3.60;;;;;;;26.62;37.28;101039.66;5110989;28;20046;-59
2022/07/20 00:18:03;;;;;;;6.68;3.92;;;;;;;26.61;36.58;101035.28;5102540;28;20032;-59
2022/07/20 00:20:28;;;;;;;5.68;3.85;;;;;;;26.54;34.93;101030.47;5091818;28;20046;-58
2022/07/20 00:22:53;;;;;;;5.20;3.78;;;;;;;26.47;37.56;101037.31;5092072;28;20024;-58
2022/07/20 00:25:19;;;;;;;7.37;3.73;;;;;;;26.52;36.43;101035.97;5091948;28;20028;-58
2022/07/20 00:27:44;;;;;;;5.10;3.50;;;;;;;26.41;34.74;101016.31;5091633;28;20270;-58
2022/07/20 00:30:10;;;;;;;9.32;4.05;;;;;;;26.48;35.35;101037.19;5091863;28;20043;-59
2022/07/20 00:32:39;;;;;;;7.03;3.92;;;;;;;26.53;35.20;101036.81;5091681;28;20070;-58
2022/07/20 00:35:07;;;;;;;7.15;3.50;;;;;;;26.43;37.33;101036.69;5091663;28;20061;-59
2022/07/20 00:37:32;;;;;;;10.07;3.72;;;;;;;26.29;37.14;101040.44;5091588;28;20084;-58
2022/07/20 00:39:57;;;;;;;6.60;4.30;;;;;;;26.15;35.06;101098.75;5091512;28;20043;-58
2022/07/20 00:42:22;;;;;;;7.13;3.70;;;;;;;26.12;34.72;101098.97;5091879;28;20043;-59
2022/07/20 00:44:48;;;;;;;7.47;4.27;;;;;;;26.13;34.21;101052.41;5091644;28;20274;-59
2022/07/20 00:47:13;;;;;;;10.90;4.50;;;;;;;26.10;36.00;101044.59;5091501;28;20274;-58
2022/07/20 00:49:38;;;;;;;7.22;4.25;;;;;;;26.10;35.56;101055.31;5091414;28;20688;-58
2022/07/20 00:52:04;;;;;;;6.77;4.03;;;;;;;26.07;38.35;101060.91;5091484;28;20028;-59
2022/07/20 00:54:29;;;;;;;10.07;4.07;;;;;;;25.92;35.63;101087.03;5091623;28;20670;-59
2022/07/20 00:56:55;;;;;;;9.07;4.65;;;;;;;25.85;35.75;101072.34;5091608;28;20122;-59
2022/07/20 00:59:20;;;;;;;8.02;4.00;;;;;;;25.90;36.32;101073.75;5091422;28;20356;-58
2022/07/20 01:01:46;;;;;;;7.47;4.10;;;;;;;25.89;37.18;101079.22;5091557;28;20032;-57
2022/07/20 01:04:11;;;;;;;8.18;4.20;;;;;;;25.78;37.51;101104.16;5091422;28;20518;-59
2022/07/20 01:06:36;;;;;;;6.20;4.10;;;;;;;25.79;35.46;101079.06;5091465;28;20036;-58
2022/07/20 01:09:02;;;;;;;6.28;4.10;;;;;;;25.84;35.71;101067.97;5091176;28;20063;-59
2022/07/20 01:11:27;;;;;;;9.63;4.18;;;;;;;25.85;35.17;101062.50;5091525;28;20067;-58
2022/07/20 01:14:00;;;;;;;12.43;4.18;;;;;;;25.91;35.57;101062.06;5091434;28;20031;-60
2022/07/20 01:16:25;;;;;;;6.43;4.20;;;;;;;25.86;35.78;101074.94;5091236;28;20535;-60
2022/07/20 01:18:50;;;;;;;6.00;4.17;;;;;;;25.63;35.80;101052.47;5090858;28;20118;-58
2022/07/20 01:21:15;;;;;;;10.23;4.20;;;;;;;25.68;37.45;101073.59;5094435;28;20266;-58
2022/07/20 01:23:41;;;;;;;6.65;4.50;;;;;;;25.64;37.05;101069.41;5095162;28;20278;-57
2022/07/20 01:26:06;;;;;;;6.13;4.10;;;;;;;25.61;37.07;101073.19;5095281;28;20469;-57
2022/07/20 01:28:32;;;;;;;10.18;4.22;;;;;;;25.63;36.57;101057.84;5095370;28;20274;-57
2022/07/20 01:30:57;;;;;;;10.43;4.28;;;;;;;25.64;36.11;101058.69;5094984;28;20099;-58
2022/07/20 01:33:23;;;;;;;8.48;4.50;;;;;;;25.63;37.24;101060.53;5094742;28;20043;-57
2022/07/20 01:35:48;;;;;;;7.97;3.93;;;;;;;25.59;36.92;101056.34;5095086;28;20111;-58
2022/07/20 01:38:14;;;;;;;7.80;4.35;;;;;;;25.50;38.08;101061.50;5095090;28;20764;-59
2022/07/20 01:40:39;;;;;;;7.90;4.10;;;;;;;25.35;39.13;101054.56;5094855;28;20050;-57
2022/07/20 01:43:05;;;;;;;9.73;4.63;;;;;;;25.29;37.46;101055.84;5094956;28;20282;-58
2022/07/20 01:45:31;;;;;;;7.20;4.13;;;;;;;25.18;38.08;101055.75;5094767;28;20277;-58
2022/07/20 01:47:57;;;;;;;11.40;5.40;;;;;;;25.24;37.50;101049.97;5094775;28;20027;-57
2022/07/20 01:50:22;;;;;;;6.30;4.10;;;;;;;25.25;36.99;101052.56;5094891;28;20063;-57
2022/07/20 01:52:47;;;;;;;8.57;4.57;;;;;;;25.29;36.91;101059.38;5094758;28;20309;-58
2022/07/20 01:55:13;;;;;;;5.93;4.60;;;;;;;25.25;37.82;101067.78;5114188;28;20442;-58
2022/07/20 01:57:38;;;;;;;9.68;4.18;;;;;;;25.21;38.91;101060.91;5096044;28;20334;-58
2022/07/20 02:00:06;;;;;;;9.98;4.53;;;;;;;25.12;38.75;101067.75;5094572;28;20144;-58
2022/07/20 02:02:31;;;;;;;10.30;4.53;;;;;;;24.96;38.83;101083.19;5094252;28;20412;-58
2022/07/20 02:04:56;;;;;;;6.95;4.30;;;;;;;24.90;40.26;101084.47;5094101;28;20043;-59
2022/07/20 02:07:22;;;;;;;6.23;4.20;;;;;;;24.84;39.56;101098.25;5094559;28;20455;-58
2022/07/20 02:09:47;;;;;;;8.90;4.50;;;;;;;24.64;38.31;101098.75;5094371;28;20305;-58
2022/07/20 02:12:12;;;;;;;8.73;4.50;;;;;;;24.73;37.50;101118.72;5094428;28;20284;-58
2022/07/20 02:14:37;;;;;;;5.93;4.73;;;;;;;24.91;36.82;101117.44;5094382;28;20316;-58
2022/07/20 02:17:03;;;;;;;8.52;5.28;;;;;;;24.83;37.30;101115.28;5094054;28;20270;-57
2022/07/20 02:19:28;;;;;;;12.17;6.60;;;;;;;24.80;38.79;101110.13;5093892;28;20121;-58
2022/07/20 02:21:53;;;;;;;10.98;6.38;;;;;;;24.81;38.91;101111.84;5094450;28;20258;-58
2022/07/20 02:24:18;;;;;;;15.63;7.95;;;;;;;24.76;39.83;101094.41;5097335;28;20043;-58
2022/07/20 02:26:44;;;;;;;11.30;7.33;;;;;;;24.84;39.88;101110.78;5114602;28;20142;-57
2022/07/20 02:29:09;;;;;;;10.43;7.47;;;;;;;24.67;40.74;101119.97;5114623;28;20956;-58
2022/07/20 02:31:34;;;;;;;13.70;8.90;;;;;;;24.70;41.84;101110.88;5113431;28;20339;-58
2022/07/20 02:34:00;;;;;;;15.30;10.20;;;;;;;24.62;42.23;101116.75;5114432;28;20410;-58
2022/07/20 02:36:26;;;;;;;18.67;9.60;;;;;;;24.56;43.16;101114.50;5114434;28;20365;-58
2022/07/20 02:38:51;;;;;;;14.57;9.43;;;;;;;24.50;43.39;101107.72;5114351;28;20118;-57
2022/07/20 02:41:16;;;;;;;17.33;10.27;;;;;;;24.37;44.54;101106.84;5114466;28;20063;-57
2022/07/20 02:43:41;;;;;;;18.47;11.37;;;;;;;24.39;45.43;101123.66;5114256;28;20844;-57
2022/07/20 02:46:07;;;;;;;17.35;12.55;;;;;;;24.39;46.24;101133.50;5114252;28;20273;-58
2022/07/20 02:48:32;;;;;;;20.08;12.20;;;;;;;24.35;46.79;101131.97;5114109;28;20434;-58
2022/07/20 02:50:58;;;;;;;21.17;13.73;;;;;;;24.28;47.96;101127.03;5114054;28;20135;-58
2022/07/20 02:53:23;;;;;;;19.23;14.10;;;;;;;24.23;49.41;101133.63;5114108;28;20452;-57
2022/07/20 02:55:49;;;;;;;25.70;15.27;;;;;;;24.23;49.91;101122.94;5114102;28;20320;-57
2022/07/20 02:58:14;;;;;;;27.45;16.85;;;;;;;24.13;51.52;101119.97;5113987;28;20035;-58
2022/07/20 03:00:40;;;;;;;23.87;16.40;;;;;;;24.04;51.89;101120.59;5113831;28;20118;-58
2022/07/20 03:03:06;;;;;;;28.88;18.42;;;;;;;23.94;53.12;101128.34;5113786;28;20727;-58
2022/07/20 03:05:33;;;;;;;23.98;17.20;;;;;;;23.97;52.78;101139.78;5113848;28;20043;-58
2022/07/20 03:07:58;;;;;;;26.23;18.60;;;;;;;23.89;53.82;101141.16;5113705;28;20036;-58
2022/07/20 03:10:23;;;;;;;27.95;18.83;;;;;;;23.81;54.50;101135.44;5113775;28;20346;-58
2022/07/20 03:12:49;;;;;;;25.30;17.80;;;;;;;23.81;54.52;101131.91;5113735;28;20134;-58
2022/07/20 03:15:14;;;;;;;24.08;18.75;;;;;;;23.82;54.50;101128.28;5113648;28;20031;-58
2022/07/20 03:17:48;;;;;;;29.40;19.63;;;;;;;23.86;54.82;101127.13;5113535;28;20036;-57
2022/07/20 03:20:18;;;;;;;28.52;20.25;;;;;;;23.82;55.56;101126.47;5113452;28;20031;-58
2022/07/20 03:22:44;;;;;;;29.83;19.77;;;;;;;23.84;55.81;101135.25;5113183;28;20067;-58
2022/07/20 03:25:10;;;;;;;30.10;21.05;;;;;;;23.71;56.83;101139.66;5093510;28;20058;-58
2022/07/20 03:27:36;;;;;;;31.50;21.88;;;;;;;23.64;57.44;101140.13;5092971;28;20039;-58
2022/07/20 03:30:03;;;;;;;27.33;20.95;;;;;;;23.68;57.63;101160.38;5093037;28;20032;-58
2022/07/20 03:32:29;;;;;;;30.45;21.98;;;;;;;23.56;58.60;101152.16;5107373;28;20059;-58
2022/07/20 03:34:54;;;;;;;30.50;21.85;;;;;;;23.59;58.70;101173.34;5113256;28;20047;-59
2022/07/20 03:37:19;;;;;;;35.03;23.17;;;;;;;23.58;58.48;101170.75;5113322;28;20031;-58
2022/07/20 03:39:44;;;;;;;32.73;22.73;;;;;;;23.55;59.13;101173.66;5113179;28;20297;-58
2022/07/20 03:42:10;;;;;;;33.33;22.83;;;;;;;23.48;59.86;101180.28;5112522;28;20269;-58
2022/07/20 03:44:35;;;;;;;31.67;23.23;;;;;;;23.45;60.36;101177.78;5113014;28;20031;-58
2022/07/20 03:47:00;;;;;;;33.70;24.00;;;;;;;23.30;61.42;101192.94;5113191;28;20268;-58
2022/07/20 03:49:25;;;;;;;34.70;24.57;;;;;;;23.34;61.20;101196.31;5112945;28;20730;-58
2022/07/20 03:51:51;;;;;;;37.10;25.93;;;;;;;23.25;62.38;101200.38;5112770;28;20293;-58
2022/07/20 03:54:16;;;;;;;35.40;26.77;;;;;;;23.22;62.18;101201.41;5112922;28;20273;-59
2022/07/20 03:56:41;;;;;;;32.95;25.13;;;;;;;23.21;62.56;101214.84;5112873;28;20039;-58
2022/07/20 03:59:08;;;;;;;35.30;25.58;;;;;;;23.25;62.20;101219.94;5112679;28;20043;-58
2022/07/20 04:01:33;;;;;;;34.83;25.35;;;;;;;23.14;63.37;101230.41;5112707;28;20030;-58
2022/07/20 04:03:59;;;;;;;36.65;25.23;;;;;;;23.15;62.84;101218.78;5112791;28;20143;-58
2022/07/20 04:06:24;;;;;;;42.15;26.25;;;;;;;23.23;62.94;101227.16;5112672;28;20042;-58
2022/07/20 04:08:49;;;;;;;34.33;24.83;;;;;;;23.21;62.72;101234.41;5112637;28;20054;-58
2022/07/20 04:11:14;;;;;;;32.40;25.57;;;;;;;23.26;62.47;101236.81;5112706;28;20268;-57
2022/07/20 04:13:40;;;;;;;35.72;25.55;;;;;;;23.22;62.59;101230.78;5112050;28;21028;-58
2022/07/20 04:16:05;;;;;;;35.47;25.73;;;;;;;23.18;62.74;101236.44;5112551;28;20046;-57
2022/07/20 04:18:31;;;;;;;34.53;25.70;;;;;;;23.17;62.77;101235.56;5112416;28;20298;-58
2022/07/20 04:20:57;;;;;;;33.45;24.67;;;;;;;23.22;62.41;101233.47;5112387;28;20142;-58
2022/07/20 04:23:22;;;;;;;32.53;24.38;;;;;;;23.25;62.28;101238.63;5112355;28;20141;-58
2022/07/20 04:25:47;;;;;;;33.10;24.38;;;;;;;23.27;62.15;101242.06;5112532;28;20118;-58
2022/07/20 04:28:12;;;;;;;30.02;24.10;;;;;;;23.32;61.88;101239.13;5112337;28;20351;-58
2022/07/20 04:30:38;;;;;;;32.97;24.07;;;;;;;23.37;61.52;101246.88;5112489;28;20031;-58
2022/07/20 04:33:03;;;;;;;33.38;23.58;;;;;;;23.40;61.30;101257.34;5112227;28;20592;-58
2022/07/20 04:35:29;;;;;;;28.60;23.02;;;;;;;23.55;60.74;101248.47;5112149;28;20035;-58
2022/07/20 04:37:54;;;;;;;32.97;23.35;;;;;;;23.55;60.96;101265.31;5112249;28;20044;-58
2022/07/20 04:40:19;;;;;;;29.48;23.05;;;;;;;23.56;60.49;101259.03;5111789;28;20043;-58
2022/07/20 04:42:45;;;;;;;28.33;22.55;;;;;;;23.50;60.90;101253.19;5112050;28;20028;-58
2022/07/20 04:45:10;;;;;;;31.67;22.73;;;;;;;23.47;60.88;101250.69;5112034;28;20027;-59
2022/07/20 04:47:35;;;;;;;29.15;22.10;;;;;;;23.58;60.49;101266.94;5101845;28;20305;-58
2022/07/20 04:50:01;;;;;;;27.30;20.90;;;;;;;23.63;60.19;101272.88;5101255;28;20051;-57
2022/07/20 04:52:26;;;;;;;28.02;21.80;;;;;;;23.68;59.93;101276.16;5094927;28;20743;-58
2022/07/20 04:54:51;;;;;;;24.90;20.47;;;;;;;23.57;59.77;101257.22;5090956;28;20082;-58
2022/07/20 04:57:17;;;;;;;32.25;22.13;;;;;;;23.53;60.34;101285.09;5091596;28;20744;-58
2022/07/20 04:59:42;;;;;;;30.08;20.92;;;;;;;23.47;60.27;101280.94;5091484;28;20126;-58
2022/07/20 05:02:07;;;;;;;26.10;20.80;;;;;;;23.54;59.85;101270.78;5091524;28;20409;-59
2022/07/20 05:04:32;;;;;;;25.47;20.10;;;;;;;23.53;60.07;101279.75;5091327;28;20308;-58
2022/07/20 05:06:58;;;;;;;27.85;20.63;;;;;;;23.54;60.18;101282.34;5091415;28;20270;-58
2022/07/20 05:09:23;;;;;;;24.75;20.50;;;;;;;23.56;60.28;101274.19;5091584;28;20028;-59
2022/07/20 05:11:48;;;;;;;31.90;20.75;;;;;;;23.58;59.75;101269.63;5091494;28;20106;-59
2022/07/20 05:14:14;;;;;;;27.95;20.70;;;;;;;23.51;59.80;101270.94;5091502;28;20040;-58
2022/07/20 05:16:39;;;;;;;28.77;20.63;;;;;;;23.50;60.35;101274.56;5091459;28;20032;-59
2022/07/20 05:19:04;;;;;;;26.13;19.48;;;;;;;23.53;59.67;101266.41;5091353;28;20036;-59
2022/07/20 05:21:29;;;;;;;25.23;19.80;;;;;;;23.55;59.87;101272.50;5091398;28;20028;-59
2022/07/20 05:23:55;;;;;;;26.90;20.47;;;;;;;23.67;59.49;101277.09;5091254;28;20044;-59
2022/07/20 05:26:20;;;;;;;27.02;19.75;;;;;;;23.66;59.38;101282.53;5091514;28;20278;-59
2022/07/20 05:28:46;;;;;;;24.65;20.00;;;;;;;23.57;59.59;101300.81;5091311;28;20039;-59
2022/07/20 05:31:14;;;;;;;25.42;19.45;;;;;;;23.62;59.90;101310.38;5090974;28;20048;-59
2022/07/20 05:33:41;;;;;;;27.75;19.20;;;;;;;23.54;59.59;101318.88;5091262;28;20032;-60
2022/07/20 05:36:07;;;;;;;25.15;18.65;;;;;;;23.65;59.04;101319.09;5091076;28;20107;-59
2022/07/20 05:38:32;;;;;;;25.65;19.23;;;;;;;23.65;59.24;101316.41;5091289;28;20050;-60
2022/07/20 05:40:58;;;;;;;27.23;19.10;;;;;;;23.62;59.20;101316.59;5091914;28;20039;-60
2022/07/20 05:43:24;;;;;;;26.38;19.75;;;;;;;23.63;59.30;101323.66;5095427;28;20040;-58
2022/07/20 05:45:49;;;;;;;24.88;19.50;;;;;;;23.72;59.08;101338.28;5091151;28;20059;-60
2022/07/20 05:48:15;;;;;;;26.58;18.40;;;;;;;23.75;59.08;101343.41;5091129;28;20081;-59
2022/07/20 05:50:42;;;;;;;26.20;18.05;;;;;;;23.88;59.22;101349.78;5097786;28;20040;-58
2022/07/20 05:53:08;;;;;;;21.20;16.98;;;;;;;23.93;58.29;101351.19;5111248;28;20046;-58
2022/07/20 05:55:34;;;;;;;23.48;17.13;;;;;;;24.01;57.66;101363.25;5111567;28;20040;-57
2022/07/20 05:57:59;;;;;;;21.83;16.73;;;;;;;24.05;57.62;101370.13;5111393;28;20489;-59
2022/07/20 06:00:24;;;;;;;21.77;16.13;;;;;;;24.13;56.76;101366.00;5110745;28;20039;-61
2022/07/20 06:02:50;;;;;;;23.92;15.68;;;;;;;24.30;56.75;101367.69;5111386;28;20092;-60
2022/07/20 06:05:15;;;;;;;20.63;15.73;;;;;;;24.29;56.24;101372.16;5110914;28;20399;-61
2022/07/20 06:07:40;;;;;;;20.97;15.40;;;;;;;24.29;56.04;101385.53;5092764;28;20273;-62
2022/07/20 06:10:06;;;;;;;20.80;15.57;;;;;;;24.27;56.26;101390.13;5094597;28;20277;-61
2022/07/20 06:12:31;;;;;;;22.30;15.50;;;;;;;24.28;56.36;101382.97;5094271;28;20070;-61
2022/07/20 06:14:57;;;;;;;21.83;14.73;;;;;;;24.23;56.03;101395.75;5094115;28;20108;-61
2022/07/20 06:17:22;;;;;;;19.07;13.87;;;;;;;24.17;56.56;101405.00;5101607;28;20039;-61
2022/07/20 06:19:47;;;;;;;18.67;13.73;;;;;;;24.22;56.11;101412.75;5114781;28;20285;-61
2022/07/20 06:22:12;;;;;;;22.30;13.80;;;;;;;24.18;56.26;101416.56;5114850;28;20469;-61
2022/07/20 06:24:38;;;;;;;23.00;14.57;;;;;;;24.11;56.98;101425.91;5111890;28;20262;-60
2022/07/20 06:27:03;;;;;;;17.40;13.82;;;;;;;24.10;56.74;101429.53;5094008;28;20269;-60
2022/07/20 06:29:29;;;;;;;22.70;14.13;;;;;;;24.15;56.78;101438.13;5094212;28;20067;-60
2022/07/20 06:31:54;;;;;;;19.13;13.32;;;;;;;24.26;56.18;101436.56;5094015;28;20301;-60
2022/07/20 06:34:19;;;;;;;20.23;13.93;;;;;;;24.41;56.10;101448.16;5094018;28;20043;-61
2022/07/20 06:36:46;;;;;;;22.83;13.97;;;;;;;24.49;55.52;101461.03;5094010;28;20764;-60
2022/07/20 06:39:11;;;;;;;24.63;14.00;;;;;;;24.51;55.75;101473.38;5094009;28;21011;-61
2022/07/20 06:41:37;;;;;;;17.83;13.70;;;;;;;24.50;55.22;101474.31;5094058;28;20120;-60
2022/07/20 06:44:02;;;;;;;17.50;13.32;;;;;;;24.52;55.40;101471.56;5093247;28;20028;-61
2022/07/20 06:46:27;;;;;;;21.10;14.48;;;;;;;24.58;54.90;101482.75;5093784;28;20080;-61
2022/07/20 06:48:53;;;;;;;21.42;13.77;;;;;;;24.58;55.17;101484.56;5098580;28;20038;-61
2022/07/20 06:51:18;;;;;;;19.27;13.02;;;;;;;24.49;55.73;101498.50;5104139;28;20074;-60
2022/07/20 06:53:43;;;;;;;18.83;13.90;;;;;;;24.39;55.28;101495.53;5102900;28;20091;-60
2022/07/20 06:56:09;;;;;;;20.55;13.63;;;;;;;24.41;55.53;101492.78;5103869;28;20023;-61
2022/07/20 06:58:34;;;;;;;17.52;12.88;;;;;;;24.40;55.87;101505.28;5102383;28;20031;-61
2022/07/20 07:01:00;;;;;;;17.23;13.77;;;;;;;24.48;56.11;101505.66;5103640;28;20031;-60
2022/07/20 07:03:25;;;;;;;18.67;13.43;;;;;;;24.47;55.64;101498.59;5102964;28;20031;-61
2022/07/20 07:05:50;;;;;;;22.60;13.63;;;;;;;24.59;55.29;101497.84;5102461;28;20046;-61
2022/07/20 07:08:15;;;;;;;18.80;12.97;;;;;;;24.67;55.17;101504.53;5103777;28;20315;-61
2022/07/20 07:10:41;;;;;;;20.73;13.55;;;;;;;24.81;55.01;101496.50;5102364;28;20364;-60
2022/07/20 07:13:06;;;;;;;17.50;12.45;;;;;;;24.92;55.09;101484.19;5102742;28;20355;-62
2022/07/20 07:15:31;;;;;;;20.52;14.07;;;;;;;24.97;54.34;101478.56;5103885;28;20034;-62
2022/07/20 07:17:57;;;;;;;18.30;13.77;;;;;;;25.11;53.29;101478.53;5100975;28;20039;-60
2022/07/20 07:20:22;;;;;;;19.20;13.13;;;;;;;25.02;53.49;101479.13;5103500;28;20088;-62
2022/07/20 07:22:47;;;;;;;20.48;13.82;;;;;;;25.31;54.01;101486.16;5103183;28;20285;-61
2022/07/20 07:25:13;;;;;;;19.98;13.02;;;;;;;25.49;53.54;101493.94;5101859;28;20074;-60
2022/07/20 07:27:38;;;;;;;22.90;13.82;;;;;;;25.43;52.79;101515.81;5098377;28;20334;-63
2022/07/20 07:30:04;;;;;;;18.13;12.55;;;;;;;25.41;52.69;101510.53;5103498;27;20043;-59
2022/07/20 07:32:30;;;;;;;15.05;12.13;;;;;;;25.36;52.53;101518.00;5113383;28;20055;-60
2022/07/20 07:34:55;;;;;;;17.27;12.25;;;;;;;25.32;53.34;101522.69;5113209;28;20350;-60
2022/07/20 07:37:20;;;;;;;18.30;12.10;;;;;;;25.52;53.59;101529.47;5113109;28;20042;-59
2022/07/20 07:39:46;;;;;;;16.52;11.85;;;;;;;25.73;52.39;101537.94;5112995;28;20277;-59
2022/07/20 07:42:11;;;;;;;17.80;12.37;;;;;;;25.73;52.45;101539.78;5112453;28;20122;-60
2022/07/20 07:44:36;;;;;;;17.50;11.63;;;;;;;25.73;52.03;101548.69;5113034;28;20334;-61
2022/07/20 07:47:02;;;;;;;18.73;12.00;;;;;;;25.65;52.21;101551.84;5112971;28;20273;-60
2022/07/20 07:49:27;;;;;;;15.95;12.00;;;;;;;25.70;52.70;101559.59;5112893;28;20370;-59
2022/07/20 07:51:52;;;;;;;18.83;11.67;;;;;;;25.66;51.74;101555.38;5113110;28;20043;-60
2022/07/20 07:54:17;;;;;;;16.17;11.03;;;;;;;25.70;51.97;101562.28;5113100;28;20261;-59
2022/07/20 07:56:43;;;;;;;15.07;10.77;;;;;;;25.67;51.82;101557.97;5112742;28;20292;-59
2022/07/20 07:59:08;;;;;;;15.83;11.00;;;;;;;25.73;52.60;101556.72;5112653;28;20589;-60
2022/07/20 08:01:36;;;;;;;14.13;10.32;;;;;;;25.75;51.32;101554.81;5112420;28;20288;-60
2022/07/20 08:04:02;;;;;;;14.68;9.93;;;;;;;25.79;51.07;101545.59;5112506;28;20459;-60
2022/07/20 08:06:28;;;;;;;17.13;10.05;;;;;;;25.71;50.88;101523.78;5112837;28;20035;-61
2022/07/20 08:08:53;;;;;;;15.65;9.93;;;;;;;25.86;51.30;101535.31;5112800;28;20448;-60
2022/07/20 08:11:18;;;;;;;13.40;9.27;;;;;;;25.85;51.40;101522.88;5112623;28;20035;-60
2022/07/20 08:13:44;;;;;;;14.13;9.80;;;;;;;25.91;50.06;101514.41;5112463;28;20261;-61
2022/07/20 08:16:09;;;;;;;16.52;9.90;;;;;;;25.94;50.52;101511.53;5112122;28;20043;-60
2022/07/20 08:18:34;;;;;;;14.70;10.02;;;;;;;26.07;49.92;101511.56;5112375;28;20070;-61
2022/07/20 08:21:00;;;;;;;16.00;10.07;;;;;;;26.12;49.66;101517.50;5112279;28;20751;-60
2022/07/20 08:23:25;;;;;;;17.00;9.83;;;;;;;26.11;50.33;101526.50;5112606;28;20334;-61
2022/07/20 08:25:50;;;;;;;15.32;9.63;;;;;;;26.16;50.44;101527.88;5112397;28;20280;-60
2022/07/20 08:28:19;;;;;;;15.23;10.38;;;;;;;26.09;49.83;101523.06;5112435;28;20028;-61
2022/07/20 08:30:46;;;;;;;14.93;10.18;;;;;;;26.08;49.95;101540.13;5111288;28;20103;-60
2022/07/20 08:33:12;;;;;;;13.60;10.25;;;;;;;26.13;49.67;101538.00;5112128;28;20047;-61
2022/07/20 08:35:38;;;;;;;12.93;9.77;;;;;;;26.21;50.14;101549.91;5112443;28;20039;-61
2022/07/20 08:38:04;;;;;;;14.85;10.50;;;;;;;26.30;49.90;101557.38;5111844;28;20051;-59
2022/07/20 08:40:29;;;;;;;15.15;10.20;;;;;;;26.33;49.42;101553.59;5112070;28;20036;-62
2022/07/20 08:42:55;;;;;;;19.17;10.48;;;;;;;26.32;49.90;101555.44;5109304;28;20486;-60
2022/07/20 08:45:20;;;;;;;13.63;10.32;;;;;;;26.31;49.45;101559.09;5092071;28;20134;-61
2022/07/20 08:47:46;;;;;;;13.40;10.35;;;;;;;26.39;49.53;101553.19;5094208;28;20049;-59
2022/07/20 08:50:11;;;;;;;14.88;10.55;;;;;;;26.59;49.72;101551.84;5091888;28;20043;-59
2022/07/20 08:52:37;;;;;;;16.35;10.75;;;;;;;26.69;48.70;101537.66;5091709;28;20036;-61
2022/07/20 08:55:04;;;;;;;16.15;10.88;;;;;;;26.89;48.68;101548.81;5094394;28;20465;-61
2022/07/20 08:57:30;;;;;;;13.98;10.00;;;;;;;27.12;48.55;101529.28;5101727;28;20036;-60
2022/07/20 08:59:55;;;;;;;14.82;10.52;;;;;;;27.08;47.81;101521.53;5116125;28;20040;-60
2022/07/20 09:02:21;;;;;;;15.82;10.77;;;;;;;27.11;47.76;101503.38;5102283;28;20081;-60
2022/07/20 09:04:58;;;;;;;17.77;10.52;;;;;;;27.17;48.01;101492.19;5100453;28;20146;-61
2022/07/20 09:07:52;;;;;;;19.17;10.90;;;;;;;27.23;47.94;101513.22;5100804;28;20035;-62
2022/07/20 09:10:30;;;;;;;16.52;10.98;;;;;;;27.19;47.99;101535.91;5098235;28;20042;-59
2022/07/20 09:13:02;;;;;;;14.70;10.35;;;;;;;27.45;47.87;101542.09;5090007;28;20089;-60
2022/07/20 09:15:36;;;;;;;13.55;10.80;;;;;;;27.63;46.81;101545.31;5091127;28;20105;-60
2022/07/20 09:18:17;;;;;;;15.68;10.45;;;;;;;28.10;45.59;101565.94;5110035;28;20034;-61
2022/07/20 09:20:48;;;;;;;19.50;10.52;;;;;;;28.04;45.31;101615.75;5110044;28;20031;-60
2022/07/20 09:23:17;;;;;;;13.48;10.00;;;;;;;28.05;45.86;101621.97;5110324;28;20031;-60
2022/07/20 09:25:51;;;;;;;13.93;10.50;;;;;;;27.81;45.75;101632.72;5110225;28;20136;-60
2022/07/20 09:28:17;;;;;;;15.85;10.65;;;;;;;27.88;46.09;101638.50;5110087;28;20192;-61
2022/07/20 09:30:54;;;;;;;15.43;10.90;;;;;;;28.44;44.95;101631.59;5109977;28;20386;-61
2022/07/20 09:33:24;;;;;;;17.15;11.05;;;;;;;28.81;43.61;101620.72;5111575;28;20027;-60
2022/07/20 09:35:50;;;;;;;15.90;10.57;;;;;;;29.42;42.46;101606.84;5111305;28;20356;-59
2022/07/20 09:38:15;;;;;;;15.43;9.67;;;;;;;29.75;41.34;101603.25;5111508;28;20039;-59
2022/07/20 09:40:43;;;;;;;17.90;10.90;;;;;;;29.29;41.66;101611.44;5108572;28;20292;-60
2022/07/20 09:43:25;;;;;;;14.60;10.20;;;;;;;29.06;42.71;101604.34;5115397;28;20110;-60
2022/07/20 09:45:50;;;;;;;14.50;9.90;;;;;;;28.86;42.80;101597.84;5115353;28;20040;-61
2022/07/20 09:48:20;;;;;;;12.65;10.32;;;;;;;28.85;42.90;101603.34;5095711;28;20036;-62
2022/07/20 09:50:47;;;;;;;14.93;10.27;;;;;;;28.85;43.64;101601.50;5094448;28;20463;-61
2022/07/20 09:53:14;;;;;;;14.65;10.80;;;;;;;29.12;43.21;101586.81;5102096;28;20051;-59
2022/07/20 09:55:41;;;;;;;13.05;9.95;;;;;;;28.94;42.77;101584.59;5115053;28;20042;-59
2022/07/20 09:58:07;;;;;;;12.95;9.60;;;;;;;28.97;43.38;101583.50;5114986;28;20354;-61
2022/07/20 10:00:34;;;;;;;15.52;9.55;;;;;;;28.93;42.39;101592.81;5115004;28;20036;-60
2022/07/20 10:03:02;;;;;;;13.10;8.98;;;;;;;29.00;42.54;101588.66;5115272;28;20051;-61
2022/07/20 10:05:30;;;;;;;14.75;9.18;;;;;;;28.82;42.46;101593.66;5115122;28;20071;-60
2022/07/20 10:07:58;;;;;;;13.35;8.80;;;;;;;28.71;42.51;101596.31;5108050;28;20031;-60
2022/07/20 10:10:23;;;;;;;13.15;8.80;;;;;;;28.48;43.12;101608.84;5102207;28;20036;-59
2022/07/20 10:12:48;;;;;;;13.05;8.80;;;;;;;28.46;43.64;101610.78;5096927;28;20032;-58
2022/07/20 10:15:21;;;;;;;12.03;8.50;;;;;;;28.73;43.15;101622.16;5079774;28;20039;-60
2022/07/20 10:17:47;;;;;;;13.10;8.25;;;;;;;28.91;42.80;101605.56;5107215;28;20316;-59
2022/07/20 10:20:33;;;;;;;13.10;9.40;;;;;;;28.93;42.86;101603.59;5094210;28;20032;-58
2022/07/20 10:23:24;;;;;;;11.80;9.25;;;;;;;29.02;42.81;101587.56;5094212;28;20039;-58
2022/07/20 10:25:50;;;;;;;14.25;9.20;;;;;;;28.89;42.68;101586.81;5094078;28;20062;-58
2022/07/20 10:28:32;;;;;;;14.33;8.87;;;;;;;28.97;43.19;101587.06;5095732;28;20344;-58
2022/07/20 10:31:08;;;;;;;13.38;8.85;;;;;;;28.92;43.14;101591.13;5093883;28;20647;-58
2022/07/20 10:33:35;;;;;;;14.95;9.15;;;;;;;29.11;42.69;101591.34;5094080;28;20028;-58
2022/07/20 10:39:39;;;;;;;14.98;9.23;;;;;;;29.73;41.41;101590.84;5094249;28;20736;-58
2022/07/20 10:42:20;;;;;;;10.77;8.25;;;;;;;29.58;41.60;101579.47;5093896;28;20036;-59
2022/07/20 10:44:45;;;;;;;11.60;8.48;;;;;;;29.69;40.67;101582.16;5093898;28;20092;-57
2022/07/20 10:47:46;;;;;;;11.93;7.43;;;;;;;29.77;40.77;101590.47;5093939;28;20024;-59
2022/07/20 10:50:36;;;;;;;11.70;8.07;;;;;;;29.86;40.44;101583.44;5093327;28;20047;-59
2022/07/20 10:53:10;;;;;;;10.23;7.50;;;;;;;29.96;40.06;101576.28;5092906;28;20055;-59
2022/07/20 10:55:35;;;;;;;11.68;7.35;;;;;;;30.05;40.11;101577.41;5093373;28;20078;-59
2022/07/20 10:58:06;;;;;;;10.93;7.87;;;;;;;30.07;39.77;101581.69;5093859;28;20082;-59
2022/07/20 11:00:34;;;;;;;12.20;8.25;;;;;;;30.22;40.01;101594.91;5093434;28;20439;-59
2022/07/20 11:03:01;;;;;;;9.50;7.30;;;;;;;30.13;39.87;101597.38;5093176;28;20385;-59
2022/07/20 11:05:27;;;;;;;11.68;7.65;;;;;;;29.91;40.07;101581.25;5093700;28;20044;-59
2022/07/20 11:07:52;;;;;;;10.32;7.45;;;;;;;29.91;40.60;101583.94;5093519;28;20118;-59
2022/07/20 11:10:24;;;;;;;9.80;7.35;;;;;;;30.03;40.60;101600.97;5093479;28;20032;-59
2022/07/20 11:13:16;;;;;;;11.23;7.60;;;;;;;30.40;40.20;101598.75;5093208;28;20120;-57
2022/07/20 11:15:45;;;;;;;10.77;7.90;;;;;;;30.35;39.92;101593.72;5089069;28;20055;-57
2022/07/20 11:18:15;;;;;;;11.93;7.95;;;;;;;30.36;39.95;101590.03;5093122;28;20114;-59